Time;durP1;ratioP1;P1;durP2;ratioP2;P2;SDS_P1;SDS_P2;PMS_P1;PMS_P2;Temp;Humidity;BMP_temperature;BMP_pressure;BME280_temperature;BME280_humidity;BME280_pressure;Samples;Min_cycle;Max_cycle;Signal;HPM_P1;HPM_P2
2024/03/03 00:00:03;;;;;;;22.93;12.63;;;11.10;99.90;;;;;;4856121;29;20757;-80
2024/03/03 00:02:31;;;;;;;23.77;13.23;;;11.10;99.90;;;;;;4862028;29;20239;-71
2024/03/03 00:04:58;;;;;;;17.77;10.73;;;11.10;99.90;;;;;;4855072;29;20681;-71
2024/03/03 00:07:26;;;;;;;18.77;10.37;;;11.10;99.90;;;;;;4863346;29;20200;-72
2024/03/03 00:09:53;;;;;;;17.57;10.47;;;11.10;99.90;;;;;;4855308;29;20247;-72
2024/03/03 00:12:20;;;;;;;17.20;9.87;;;11.10;99.90;;;;;;4861478;29;20203;-72
2024/03/03 00:14:47;;;;;;;22.17;11.90;;;11.10;99.90;;;;;;4859571;29;20212;-73
2024/03/03 00:17:15;;;;;;;20.07;10.60;;;11.10;99.90;;;;;;4876356;29;20297;-71
2024/03/03 00:19:42;;;;;;;22.80;12.50;;;11.10;99.90;;;;;;4871797;29;20208;-72
2024/03/03 00:22:10;;;;;;;19.40;10.80;;;11.10;99.90;;;;;;4864470;29;20285;-74
2024/03/03 00:24:37;;;;;;;21.07;11.40;;;11.10;99.90;;;;;;4867305;29;20564;-74
2024/03/03 00:27:04;;;;;;;30.20;14.37;;;11.10;99.90;;;;;;4871671;29;20286;-74
2024/03/03 00:29:31;;;;;;;28.57;13.83;;;11.10;99.90;;;;;;4868464;29;20222;-74
2024/03/03 00:31:59;;;;;;;28.63;13.80;;;11.10;99.90;;;;;;4866681;29;20236;-74
2024/03/03 00:34:27;;;;;;;22.93;12.93;;;11.10;99.90;;;;;;4869420;29;20208;-74
2024/03/03 00:36:54;;;;;;;21.17;11.40;;;11.10;99.90;;;;;;4857626;29;20553;-72
2024/03/03 00:39:21;;;;;;;19.20;10.53;;;11.00;99.90;;;;;;4872113;29;20270;-72
2024/03/03 00:41:49;;;;;;;16.37;9.60;;;11.00;99.90;;;;;;4874262;29;20197;-72
2024/03/03 00:44:16;;;;;;;15.17;9.00;;;11.00;99.90;;;;;;4870301;29;20229;-72
2024/03/03 00:46:43;;;;;;;12.27;8.13;;;11.00;99.90;;;;;;4865257;29;20200;-73
2024/03/03 00:49:10;;;;;;;13.77;7.93;;;11.00;99.90;;;;;;4874881;29;20214;-72
2024/03/03 00:51:39;;;;;;;18.03;10.60;;;11.10;99.90;;;;;;4870136;29;20223;-72
2024/03/03 00:54:07;;;;;;;17.33;10.07;;;11.00;99.90;;;;;;4859732;29;20201;-72
2024/03/03 00:56:34;;;;;;;21.30;12.03;;;11.00;99.90;;;;;;4877441;29;20228;-73
2024/03/03 00:59:01;;;;;;;21.37;11.97;;;11.00;99.90;;;;;;4861291;29;20215;-72
2024/03/03 01:01:28;;;;;;;19.77;12.37;;;11.00;99.90;;;;;;4858907;29;20233;-74
2024/03/03 01:03:55;;;;;;;19.33;10.47;;;11.00;99.90;;;;;;4864026;29;20214;-75
2024/03/03 01:06:22;;;;;;;14.73;9.73;;;11.00;99.90;;;;;;4864573;29;20211;-77
2024/03/03 01:08:51;;;;;;;15.17;8.47;;;10.90;99.90;;;;;;4866595;29;20203;-76
2024/03/03 01:11:18;;;;;;;14.47;8.50;;;10.90;99.90;;;;;;4875269;29;20252;-75
2024/03/03 01:13:45;;;;;;;11.83;7.93;;;10.90;99.90;;;;;;4860580;29;20212;-73
2024/03/03 01:16:12;;;;;;;12.93;7.97;;;10.90;99.90;;;;;;4865541;29;20296;-74
2024/03/03 01:18:39;;;;;;;16.90;9.87;;;10.90;99.90;;;;;;4872948;29;20283;-74
2024/03/03 01:21:07;;;;;;;14.67;8.70;;;10.90;99.90;;;;;;4873193;29;20644;-78
2024/03/03 01:23:34;;;;;;;16.47;9.50;;;10.90;99.90;;;;;;4864057;29;20207;-76
2024/03/03 01:26:03;;;;;;;13.63;8.03;;;10.80;99.90;;;;;;4878839;29;20633;-77
2024/03/03 01:28:31;;;;;;;13.77;7.77;;;10.80;99.90;;;;;;4874365;29;20295;-75
2024/03/03 01:30:58;;;;;;;10.83;6.80;;;10.80;99.90;;;;;;4857435;29;20236;-77
2024/03/03 01:33:25;;;;;;;11.10;7.00;;;10.80;99.90;;;;;;4864806;29;20696;-75
2024/03/03 01:35:53;;;;;;;9.97;6.77;;;10.80;99.90;;;;;;4871138;29;20200;-79
2024/03/03 01:38:20;;;;;;;15.03;8.07;;;10.80;99.90;;;;;;4857782;29;20730;-79
2024/03/03 01:40:51;;;;;;;14.37;8.10;;;10.80;99.90;;;;;;4857876;29;20207;-79
2024/03/03 01:43:20;;;;;;;14.87;8.77;;;10.80;99.90;;;;;;4861255;29;20215;-79
2024/03/03 01:45:47;;;;;;;13.17;8.17;;;10.80;99.90;;;;;;4868406;29;20598;-79
2024/03/03 01:48:14;;;;;;;15.80;9.53;;;10.80;99.90;;;;;;4860224;29;20215;-79
2024/03/03 01:50:42;;;;;;;18.30;10.33;;;10.80;99.90;;;;;;4860485;29;20703;-79
2024/03/03 01:53:12;;;;;;;18.77;10.27;;;10.80;99.90;;;;;;4867774;29;20219;-79
2024/03/03 01:55:40;;;;;;;13.63;8.87;;;10.80;99.90;;;;;;4862822;29;20285;-78
2024/03/03 01:58:08;;;;;;;16.27;8.57;;;10.80;99.90;;;;;;4864559;29;20303;-79
2024/03/03 02:00:36;;;;;;;12.37;7.53;;;10.80;99.90;;;;;;4865458;29;20668;-79
2024/03/03 02:03:06;;;;;;;13.43;8.47;;;10.80;99.90;;;;;;4862852;29;20274;-79
2024/03/03 02:05:36;;;;;;;11.47;6.83;;;10.80;99.90;;;;;;4860378;29;20246;-78
2024/03/03 02:08:05;;;;;;;10.33;6.67;;;10.80;99.90;;;;;;4863249;29;20276;-78
2024/03/03 02:10:33;;;;;;;8.90;6.40;;;10.80;99.90;;;;;;4861008;29;20267;-78
2024/03/03 02:13:00;;;;;;;9.73;6.53;;;10.80;99.90;;;;;;4864803;29;20590;-78
2024/03/03 02:15:28;;;;;;;8.70;5.87;;;10.70;99.90;;;;;;4863355;29;20600;-78
2024/03/03 02:17:57;;;;;;;13.40;6.77;;;10.70;99.90;;;;;;4861920;29;20217;-78
2024/03/03 02:20:24;;;;;;;8.03;5.60;;;10.70;99.90;;;;;;4870711;29;20202;-79
2024/03/03 02:22:56;;;;;;;7.53;5.60;;;10.70;99.90;;;;;;4862639;29;20658;-78
2024/03/03 02:25:23;;;;;;;12.10;7.60;;;10.70;99.90;;;;;;4856795;29;20236;-78
2024/03/03 02:27:50;;;;;;;13.10;8.10;;;10.70;99.90;;;;;;4861936;29;20651;-78
2024/03/03 02:30:18;;;;;;;10.83;6.67;;;10.70;99.90;;;;;;4866780;29;20207;-78
2024/03/03 02:32:45;;;;;;;13.67;8.03;;;10.70;99.90;;;;;;4868030;29;20226;-78
2024/03/03 02:35:12;;;;;;;12.57;7.90;;;10.70;99.90;;;;;;4863289;29;20291;-77
2024/03/03 02:37:39;;;;;;;15.13;8.13;;;10.70;99.90;;;;;;4864436;29;20208;-78
2024/03/03 02:40:09;;;;;;;9.70;7.00;;;10.70;99.90;;;;;;4864070;29;20204;-77
2024/03/03 02:42:36;;;;;;;10.03;6.67;;;10.70;99.90;;;;;;4855988;29;20197;-76
2024/03/03 02:45:04;;;;;;;7.87;5.87;;;10.60;99.90;;;;;;4868741;29;20201;-76
2024/03/03 02:47:31;;;;;;;17.87;8.83;;;10.60;99.90;;;;;;4865055;29;20669;-76
2024/03/03 02:49:58;;;;;;;14.20;8.33;;;10.60;99.90;;;;;;4861191;29;20205;-76
2024/03/03 02:52:25;;;;;;;15.63;9.73;;;10.60;99.90;;;;;;4864351;29;20222;-76
2024/03/03 02:54:53;;;;;;;12.23;8.20;;;10.70;99.90;;;;;;4860401;29;20200;-76
2024/03/03 02:57:21;;;;;;;20.03;10.03;;;10.70;99.90;;;;;;4865980;29;20207;-75
2024/03/03 02:59:49;;;;;;;14.30;8.90;;;10.70;99.90;;;;;;4864011;29;20312;-75
2024/03/03 03:02:16;;;;;;;17.83;9.50;;;10.70;99.90;;;;;;4868769;29;20583;-75
2024/03/03 03:04:43;;;;;;;17.83;10.30;;;10.60;99.90;;;;;;4861458;29;20702;-75
2024/03/03 03:07:10;;;;;;;16.17;9.27;;;10.60;99.90;;;;;;4865108;29;20255;-75
2024/03/03 03:09:37;;;;;;;15.40;8.60;;;10.50;99.90;;;;;;4854201;29;20210;-75
2024/03/03 03:12:05;;;;;;;19.53;10.90;;;10.50;99.90;;;;;;4868051;29;20288;-75
2024/03/03 03:14:34;;;;;;;17.03;9.80;;;10.50;99.90;;;;;;4862305;29;20540;-81
2024/03/03 03:17:01;;;;;;;12.83;8.17;;;10.50;99.90;;;;;;4864096;29;20258;-80
2024/03/03 03:19:30;;;;;;;19.23;11.77;;;10.40;99.90;;;;;;4862718;29;20700;-80
2024/03/03 03:21:57;;;;;;;14.57;9.60;;;10.40;99.90;;;;;;4870334;29;20213;-80
2024/03/03 03:24:26;;;;;;;19.13;11.07;;;10.40;99.90;;;;;;4870073;29;20204;-80
2024/03/03 03:26:53;;;;;;;15.77;9.07;;;10.40;99.90;;;;;;4871417;29;20268;-80
2024/03/03 03:29:20;;;;;;;15.87;8.90;;;10.40;99.90;;;;;;4861756;29;20252;-80
2024/03/03 03:31:49;;;;;;;18.10;10.43;;;10.40;99.90;;;;;;4870706;29;20228;-79
2024/03/03 03:34:16;;;;;;;17.13;10.03;;;10.40;99.90;;;;;;4870164;29;20258;-72
2024/03/03 03:36:43;;;;;;;21.77;10.50;;;10.40;99.90;;;;;;4871020;29;20210;-75
2024/03/03 03:39:13;;;;;;;15.53;9.17;;;10.40;99.90;;;;;;4870830;29;20631;-75
2024/03/03 03:41:47;;;;;;;12.23;8.20;;;10.40;99.90;;;;;;4864061;29;20657;-74
2024/03/03 03:44:15;;;;;;;19.67;8.50;;;10.40;99.90;;;;;;4853969;29;20221;-75
2024/03/03 03:46:43;;;;;;;18.47;9.53;;;10.40;99.90;;;;;;4859653;29;20613;-75
2024/03/03 03:49:13;;;;;;;20.37;10.43;;;10.40;99.90;;;;;;4859195;29;20286;-75
2024/03/03 03:51:40;;;;;;;21.33;10.87;;;10.40;99.90;;;;;;4852123;29;20222;-75
2024/03/03 03:54:08;;;;;;;17.50;10.50;;;10.40;99.90;;;;;;4862943;29;20221;-75
2024/03/03 03:56:35;;;;;;;21.27;12.43;;;10.40;99.90;;;;;;4866733;29;20220;-75
2024/03/03 03:59:03;;;;;;;15.87;9.70;;;10.40;99.90;;;;;;4855928;29;20213;-75
2024/03/03 04:01:30;;;;;;;13.80;8.67;;;10.40;99.90;;;;;;4869596;29;20703;-75
2024/03/03 04:03:58;;;;;;;15.70;9.20;;;10.30;99.90;;;;;;4867279;29;20220;-75
2024/03/03 04:06:27;;;;;;;10.97;7.00;;;10.40;99.90;;;;;;4855280;29;20232;-75
2024/03/03 04:08:55;;;;;;;20.80;10.77;;;10.30;99.90;;;;;;4866260;29;20203;-76
2024/03/03 04:11:23;;;;;;;15.27;9.00;;;10.40;99.90;;;;;;4869018;29;20239;-77
2024/03/03 04:13:51;;;;;;;16.50;8.00;;;10.40;99.90;;;;;;4869525;29;20228;-77
2024/03/03 04:16:19;;;;;;;14.93;7.97;;;10.30;99.90;;;;;;4863294;29;20693;-76
2024/03/03 04:18:46;;;;;;;13.20;7.43;;;10.40;99.90;;;;;;4869770;29;20299;-73
2024/03/03 04:21:13;;;;;;;10.73;6.70;;;10.30;99.90;;;;;;4874517;29;20298;-73
2024/03/03 04:23:41;;;;;;;15.20;8.90;;;10.30;99.90;;;;;;4862079;29;20264;-74
2024/03/03 04:26:09;;;;;;;13.37;7.90;;;10.30;99.90;;;;;;4866090;29;20213;-74
2024/03/03 04:28:36;;;;;;;13.43;7.93;;;10.30;99.90;;;;;;4873259;29;20205;-74
2024/03/03 04:31:07;;;;;;;11.40;7.50;;;10.30;99.90;;;;;;4865678;29;20196;-74
2024/03/03 04:33:34;;;;;;;15.27;9.37;;;10.30;99.90;;;;;;4875818;29;20310;-74
2024/03/03 04:36:01;;;;;;;12.53;8.17;;;10.30;99.90;;;;;;4873888;29;20228;-73
2024/03/03 04:38:28;;;;;;;12.20;7.50;;;10.30;99.90;;;;;;4858582;29;20213;-73
2024/03/03 04:40:57;;;;;;;13.93;7.90;;;10.30;99.90;;;;;;4865069;29;20291;-73
2024/03/03 04:43:24;;;;;;;12.17;7.80;;;10.30;99.90;;;;;;4871410;29;20199;-73
2024/03/03 04:45:51;;;;;;;13.20;8.10;;;10.30;99.90;;;;;;4869165;29;20603;-73
2024/03/03 04:48:18;;;;;;;11.20;6.80;;;10.40;99.90;;;;;;4863317;29;20217;-73
2024/03/03 04:50:46;;;;;;;9.50;6.63;;;10.30;99.90;;;;;;4868731;29;20669;-73
2024/03/03 04:53:13;;;;;;;11.80;6.97;;;10.30;99.90;;;;;;4873318;29;20226;-73
2024/03/03 04:55:40;;;;;;;16.73;9.67;;;10.30;99.90;;;;;;4864308;29;20214;-78
2024/03/03 04:58:09;;;;;;;12.70;7.43;;;10.30;99.90;;;;;;4863456;29;20317;-78
2024/03/03 05:00:36;;;;;;;17.13;9.67;;;10.30;99.90;;;;;;4859107;29;20296;-78
2024/03/03 05:03:03;;;;;;;17.80;9.03;;;10.30;99.90;;;;;;4859117;29;20583;-75
2024/03/03 05:05:30;;;;;;;17.57;9.43;;;10.30;99.90;;;;;;4869713;29;20208;-75
2024/03/03 05:07:57;;;;;;;10.23;7.43;;;10.40;99.90;;;;;;4868368;29;20604;-75
2024/03/03 05:10:24;;;;;;;11.57;7.67;;;10.30;99.90;;;;;;4863773;29;20577;-75
2024/03/03 05:12:52;;;;;;;11.83;7.13;;;10.30;99.90;;;;;;4876500;29;20226;-75
2024/03/03 05:15:20;;;;;;;8.93;6.63;;;10.30;99.90;;;;;;4865305;29;20290;-75
2024/03/03 05:17:47;;;;;;;10.00;6.70;;;10.30;99.90;;;;;;4862928;29;20212;-75
2024/03/03 05:20:14;;;;;;;14.13;7.33;;;10.20;99.90;;;;;;4868323;29;20284;-75
2024/03/03 05:22:42;;;;;;;10.97;7.67;;;10.20;99.90;;;;;;4876697;29;20270;-76
2024/03/03 05:25:10;;;;;;;13.40;8.07;;;10.30;99.90;;;;;;4871590;29;20234;-76
2024/03/03 05:27:37;;;;;;;15.70;8.77;;;10.30;99.90;;;;;;4864600;29;20197;-76
2024/03/03 05:30:05;;;;;;;13.23;8.27;;;10.30;99.90;;;;;;4873642;29;20205;-76
2024/03/03 05:32:34;;;;;;;13.83;7.90;;;10.20;99.90;;;;;;4877576;29;20225;-76
2024/03/03 05:35:01;;;;;;;16.33;9.90;;;10.20;99.90;;;;;;4859995;29;20844;-76
2024/03/03 05:37:28;;;;;;;15.23;8.87;;;10.20;99.90;;;;;;4869793;29;20209;-76
2024/03/03 05:39:55;;;;;;;17.53;9.63;;;10.20;99.90;;;;;;4870155;29;20590;-75
2024/03/03 05:42:22;;;;;;;15.87;9.30;;;10.20;99.90;;;;;;4867702;29;20215;-75
2024/03/03 05:44:49;;;;;;;17.50;9.10;;;10.20;99.90;;;;;;4863842;29;20208;-75
2024/03/03 05:47:17;;;;;;;14.03;8.70;;;10.20;99.90;;;;;;4863495;29;20208;-75
2024/03/03 05:49:45;;;;;;;13.77;8.27;;;10.20;99.90;;;;;;4860077;29;20208;-75
2024/03/03 05:52:12;;;;;;;14.43;9.03;;;10.10;99.90;;;;;;4865739;29;20210;-75
2024/03/03 05:54:39;;;;;;;13.40;7.70;;;10.10;99.90;;;;;;4864911;29;20224;-77
2024/03/03 05:57:07;;;;;;;19.87;9.03;;;10.10;99.90;;;;;;4857554;29;20207;-77
2024/03/03 05:59:34;;;;;;;22.47;11.63;;;10.10;99.90;;;;;;4865531;29;20251;-77
2024/03/03 06:02:01;;;;;;;20.10;10.97;;;10.10;99.90;;;;;;4862162;29;20205;-74
2024/03/03 06:04:28;;;;;;;16.83;9.87;;;10.10;99.90;;;;;;4859398;29;20211;-74
2024/03/03 06:06:57;;;;;;;22.17;10.87;;;10.10;99.90;;;;;;4872587;29;20203;-74
2024/03/03 06:09:24;;;;;;;17.60;8.70;;;10.10;99.90;;;;;;4872222;29;20210;-75
2024/03/03 06:11:51;;;;;;;18.53;10.20;;;10.10;99.90;;;;;;4855711;29;20238;-75
2024/03/03 06:14:18;;;;;;;20.87;12.67;;;10.10;99.90;;;;;;4866697;29;20212;-74
2024/03/03 06:16:45;;;;;;;18.80;10.60;;;10.10;99.90;;;;;;4866310;29;20199;-75
2024/03/03 06:19:12;;;;;;;21.37;12.00;;;10.20;99.90;;;;;;4870525;29;20259;-77
2024/03/03 06:21:41;;;;;;;21.87;12.63;;;10.20;99.90;;;;;;4866383;29;20204;-76
2024/03/03 06:24:10;;;;;;;22.30;12.70;;;10.20;99.90;;;;;;4872133;29;20332;-76
2024/03/03 06:26:37;;;;;;;22.20;12.23;;;10.20;99.90;;;;;;4858504;29;20301;-75
2024/03/03 06:29:04;;;;;;;15.53;9.50;;;10.20;99.90;;;;;;4856211;29;20297;-75
2024/03/03 06:31:31;;;;;;;12.60;8.27;;;10.20;99.90;;;;;;4860025;29;20213;-76
2024/03/03 06:33:58;;;;;;;12.97;8.17;;;10.20;99.90;;;;;;4870447;29;20229;-76
2024/03/03 06:36:26;;;;;;;20.10;10.10;;;10.20;99.90;;;;;;4862982;29;20207;-76
2024/03/03 06:38:53;;;;;;;16.83;9.30;;;10.20;99.90;;;;;;4862336;29;20205;-76
2024/03/03 06:41:21;;;;;;;14.07;8.87;;;10.20;99.90;;;;;;4859222;29;20621;-76
2024/03/03 06:43:48;;;;;;;18.07;10.80;;;10.20;99.90;;;;;;4860408;29;20565;-76
2024/03/03 06:46:16;;;;;;;21.80;12.13;;;10.30;99.90;;;;;;4872518;29;20208;-76
2024/03/03 06:48:43;;;;;;;23.77;12.23;;;10.30;99.90;;;;;;4866998;29;20248;-76
2024/03/03 06:51:12;;;;;;;22.27;11.73;;;10.30;99.90;;;;;;4859516;29;20214;-75
2024/03/03 06:53:40;;;;;;;28.83;14.27;;;10.30;99.90;;;;;;4866065;29;20605;-76
2024/03/03 06:56:14;;;;;;;26.27;14.50;;;10.20;99.90;;;;;;4863256;29;20688;-76
2024/03/03 06:58:43;;;;;;;26.17;14.30;;;10.20;99.90;;;;;;4848494;29;20264;-76
2024/03/03 07:01:10;;;;;;;21.57;11.97;;;10.20;99.90;;;;;;4862818;29;20200;-76
2024/03/03 07:04:04;;;;;;;19.10;10.83;;;10.20;99.90;;;;;;4866947;29;20207;-76
2024/03/03 07:06:33;;;;;;;21.10;12.67;;;10.20;99.90;;;;;;4862862;29;20623;-76
2024/03/03 07:09:01;;;;;;;20.23;11.90;;;10.20;99.90;;;;;;4863195;29;20208;-76
2024/03/03 07:11:28;;;;;;;21.17;11.80;;;10.30;99.90;;;;;;4857547;29;20280;-76
2024/03/03 07:13:57;;;;;;;30.33;15.27;;;10.30;99.90;;;;;;4854080;29;20235;-75
2024/03/03 07:16:24;;;;;;;21.53;12.37;;;10.40;99.90;;;;;;4859249;29;20582;-76
2024/03/03 07:18:51;;;;;;;30.10;13.33;;;10.40;99.90;;;;;;4863861;29;20283;-76
2024/03/03 07:21:18;;;;;;;23.43;12.20;;;10.50;99.90;;;;;;4856874;29;20205;-75
2024/03/03 07:23:45;;;;;;;23.53;12.50;;;10.50;99.90;;;;;;4863517;29;20214;-75
2024/03/03 07:26:12;;;;;;;18.87;11.37;;;10.50;99.90;;;;;;4866288;29;20210;-75
2024/03/03 07:28:40;;;;;;;18.13;10.43;;;10.40;99.90;;;;;;4866295;29;20215;-75
2024/03/03 07:31:09;;;;;;;19.13;10.80;;;10.50;99.90;;;;;;4864499;29;20201;-74
2024/03/03 07:33:36;;;;;;;21.93;10.83;;;10.60;99.90;;;;;;4866470;29;20288;-76
2024/03/03 07:36:03;;;;;;;20.67;11.37;;;10.60;99.90;;;;;;4867542;29;20209;-75
2024/03/03 07:38:30;;;;;;;19.13;11.33;;;10.70;99.90;;;;;;4859949;29;20311;-76
2024/03/03 07:40:57;;;;;;;24.80;12.13;;;10.80;99.90;;;;;;4870757;29;20204;-73
2024/03/03 07:43:26;;;;;;;17.97;10.70;;;10.90;99.90;;;;;;4860119;29;20299;-75
2024/03/03 07:45:53;;;;;;;14.70;9.33;;;10.90;99.90;;;;;;4863258;29;20231;-74
2024/03/03 07:48:22;;;;;;;15.97;9.40;;;10.90;99.90;;;;;;4870525;29;20216;-70
2024/03/03 07:50:49;;;;;;;13.00;8.17;;;11.00;99.90;;;;;;4862627;29;20702;-74
2024/03/03 07:53:17;;;;;;;16.57;10.00;;;11.10;99.90;;;;;;4869814;29;20222;-74
2024/03/03 07:55:44;;;;;;;19.70;10.30;;;11.30;99.90;;;;;;4870922;29;20300;-73
2024/03/03 07:58:11;;;;;;;18.77;10.43;;;11.70;99.90;;;;;;4874858;29;20207;-71
2024/03/03 08:00:38;;;;;;;14.90;9.23;;;12.20;99.90;;;;;;4870818;29;20204;-72
2024/03/03 08:03:07;;;;;;;16.47;9.60;;;13.00;99.90;;;;;;4862790;29;20206;-75
2024/03/03 08:05:36;;;;;;;16.43;9.63;;;13.70;99.90;;;;;;4876393;29;20720;-71
2024/03/03 08:08:05;;;;;;;16.10;9.30;;;14.20;99.90;;;;;;4875308;29;20204;-74
2024/03/03 08:10:33;;;;;;;16.63;8.60;;;14.60;99.90;;;;;;4872946;29;20235;-73
2024/03/03 08:13:00;;;;;;;18.30;10.27;;;14.90;99.90;;;;;;4862873;29;20222;-72
2024/03/03 08:15:27;;;;;;;19.87;10.60;;;15.20;99.90;;;;;;4859199;29;20235;-76
2024/03/03 08:17:55;;;;;;;13.57;9.07;;;15.20;99.40;;;;;;4864139;29;20676;-74
2024/03/03 08:20:22;;;;;;;16.33;10.43;;;15.20;99.40;;;;;;4862227;29;20206;-74
2024/03/03 08:22:50;;;;;;;21.40;11.40;;;15.60;99.00;;;;;;4862181;29;20223;-77
2024/03/03 08:25:20;;;;;;;22.13;12.20;;;16.10;97.60;;;;;;4862877;29;20198;-82
2024/03/03 08:27:47;;;;;;;18.17;10.80;;;16.40;96.30;;;;;;4862186;29;20522;-81
2024/03/03 08:30:15;;;;;;;18.83;11.00;;;16.60;96.00;;;;;;4865017;29;20211;-78
2024/03/03 08:32:42;;;;;;;17.77;9.63;;;16.80;95.60;;;;;;4861195;29;20204;-82
2024/03/03 08:35:09;;;;;;;18.17;10.87;;;17.10;95.50;;;;;;4871516;29;20227;-76
2024/03/03 08:37:37;;;;;;;20.03;10.90;;;17.40;94.00;;;;;;4862509;29;20204;-76
2024/03/03 08:40:08;;;;;;;22.13;11.97;;;17.30;93.10;;;;;;4860802;29;20219;-77
2024/03/03 08:42:35;;;;;;;19.20;11.20;;;17.20;92.70;;;;;;4859573;29;20213;-74
2024/03/03 08:45:02;;;;;;;15.97;9.87;;;17.00;92.60;;;;;;4861180;29;20694;-79
2024/03/03 08:47:31;;;;;;;17.57;9.43;;;16.70;93.10;;;;;;4861166;29;20288;-76
2024/03/03 08:49:58;;;;;;;19.27;10.70;;;16.50;93.30;;;;;;4857561;29;20200;-79
2024/03/03 08:52:26;;;;;;;22.50;11.03;;;16.30;93.00;;;;;;4862825;29;20525;-78
2024/03/03 08:54:54;;;;;;;16.67;10.57;;;16.30;93.20;;;;;;4857601;29;20327;-78
2024/03/03 08:57:23;;;;;;;18.40;11.07;;;15.90;92.80;;;;;;4861502;29;21238;-73
2024/03/03 08:59:51;;;;;;;20.30;10.93;;;15.70;93.30;;;;;;4868127;29;20215;-76
2024/03/03 09:02:18;;;;;;;20.23;10.60;;;15.80;93.50;;;;;;4864735;29;20699;-74
2024/03/03 09:04:45;;;;;;;20.63;10.87;;;15.90;93.30;;;;;;4866581;29;20552;-77
2024/03/03 09:07:12;;;;;;;21.17;11.23;;;15.80;93.90;;;;;;4860549;29;20209;-77
2024/03/03 09:09:39;;;;;;;17.23;10.97;;;15.90;93.40;;;;;;4859879;29;20192;-74
2024/03/03 09:12:07;;;;;;;17.97;10.83;;;15.90;93.30;;;;;;4867742;29;20247;-78
2024/03/03 09:14:36;;;;;;;17.57;10.77;;;15.70;93.60;;;;;;4864075;29;20212;-75
2024/03/03 09:17:03;;;;;;;20.17;10.60;;;15.60;93.90;;;;;;4868325;29;20708;-76
2024/03/03 09:19:30;;;;;;;18.93;11.57;;;15.70;94.10;;;;;;4870340;29;20275;-78
2024/03/03 09:21:58;;;;;;;18.00;10.80;;;15.70;93.70;;;;;;4876496;29;20770;-75
2024/03/03 09:24:25;;;;;;;22.13;11.37;;;15.50;93.70;;;;;;4866242;29;20609;-78
2024/03/03 09:26:52;;;;;;;22.50;12.27;;;15.40;93.90;;;;;;4863533;29;20204;-78
2024/03/03 09:29:20;;;;;;;18.33;10.57;;;15.30;93.90;;;;;;4864650;29;20288;-76
2024/03/03 09:31:48;;;;;;;15.27;9.83;;;15.30;94.00;;;;;;4869411;29;20662;-75
2024/03/03 09:34:16;;;;;;;19.57;9.70;;;15.30;94.30;;;;;;4865086;29;20227;-78
2024/03/03 09:36:43;;;;;;;19.13;10.53;;;15.20;94.50;;;;;;4868042;29;20236;-76
2024/03/03 09:39:11;;;;;;;20.37;10.60;;;15.20;94.60;;;;;;4862737;29;20201;-77
2024/03/03 09:41:39;;;;;;;15.60;9.70;;;15.40;94.80;;;;;;4859929;29;20671;-80
2024/03/03 09:44:10;;;;;;;16.83;10.53;;;15.50;94.60;;;;;;4859173;29;20224;-78
2024/03/03 09:46:40;;;;;;;21.43;11.20;;;15.60;94.50;;;;;;4859674;29;20287;-78
2024/03/03 09:49:15;;;;;;;16.97;10.17;;;15.60;94.40;;;;;;4866164;29;20200;-77
2024/03/03 09:51:44;;;;;;;15.67;9.40;;;15.90;94.50;;;;;;4872414;29;20207;-78
2024/03/03 09:54:14;;;;;;;19.43;10.43;;;16.20;94.10;;;;;;4861135;29;20303;-84
2024/03/03 09:56:43;;;;;;;19.70;12.27;;;16.50;94.00;;;;;;4867972;29;20215;-83
2024/03/03 09:59:11;;;;;;;15.37;9.27;;;16.80;93.00;;;;;;4864358;29;20235;-83
2024/03/03 10:01:40;;;;;;;20.33;11.80;;;17.00;93.00;;;;;;4869094;29;20208;-83
2024/03/03 10:04:10;;;;;;;13.57;9.17;;;17.30;92.50;;;;;;4862963;29;20204;-85
2024/03/03 10:06:39;;;;;;;15.27;8.70;;;17.50;93.00;;;;;;4867353;29;20201;-78
2024/03/03 10:09:10;;;;;;;14.10;8.80;;;17.90;92.50;;;;;;4866491;29;20719;-75
2024/03/03 10:11:38;;;;;;;15.67;8.57;;;18.30;92.20;;;;;;4858336;29;20427;-75
2024/03/03 10:14:06;;;;;;;18.63;10.60;;;18.80;92.00;;;;;;4865807;29;20226;-77
2024/03/03 10:16:34;;;;;;;15.98;9.75;;;19.20;91.00;;;;;;4862310;29;20204;-76
2024/03/03 10:19:03;;;;;;;18.00;10.52;;;19.70;90.60;;;;;;4862164;29;20219;-76
2024/03/03 10:21:35;;;;;;;22.75;12.07;;;20.40;87.90;;;;;;4878596;29;20239;-77
2024/03/03 10:24:23;;;;;;;21.50;12.15;;;21.10;85.00;;;;;;4873241;29;20561;-76
2024/03/03 10:26:52;;;;;;;18.77;11.15;;;22.00;82.70;;;;;;4856907;29;20212;-76
2024/03/03 10:29:20;;;;;;;15.05;9.77;;;22.80;77.90;;;;;;4854345;29;20204;-78
2024/03/03 10:31:48;;;;;;;18.88;11.65;;;23.40;75.80;;;;;;4867208;29;20224;-78
2024/03/03 10:34:15;;;;;;;19.30;11.80;;;24.10;70.80;;;;;;4861364;29;20212;-77
2024/03/03 10:36:44;;;;;;;17.90;11.88;;;24.50;67.80;;;;;;4859472;29;20209;-78
2024/03/03 10:39:12;;;;;;;21.08;11.40;;;24.80;65.60;;;;;;4868140;29;20286;-78
2024/03/03 10:41:40;;;;;;;16.05;10.25;;;25.10;64.30;;;;;;4862355;29;20208;-79
2024/03/03 10:44:09;;;;;;;22.20;12.68;;;25.50;62.80;;;;;;4869836;29;20542;-78
2024/03/03 10:46:38;;;;;;;17.48;11.02;;;25.90;60.50;;;;;;4859791;29;20234;-77
2024/03/03 10:49:05;;;;;;;20.40;11.95;;;26.20;59.80;;;;;;4868558;29;20573;-78
2024/03/03 10:51:33;;;;;;;18.95;11.00;;;26.40;57.80;;;;;;4871264;29;20242;-79
2024/03/03 10:54:03;;;;;;;18.13;11.27;;;26.40;57.80;;;;;;4869462;29;20219;-79
2024/03/03 10:56:30;;;;;;;17.63;11.23;;;26.40;56.30;;;;;;4863540;29;20200;-79
2024/03/03 10:58:58;;;;;;;19.70;11.43;;;26.00;56.10;;;;;;4859551;29;20215;-78
2024/03/03 11:01:25;;;;;;;17.08;10.50;;;25.30;56.60;;;;;;4864945;29;20561;-78
2024/03/03 11:03:56;;;;;;;17.02;9.95;;;24.70;57.60;;;;;;4863390;29;20224;-77
2024/03/03 11:06:24;;;;;;;15.63;10.85;;;24.40;58.60;;;;;;4870957;29;20203;-80
2024/03/03 11:08:52;;;;;;;20.23;11.50;;;24.20;58.40;;;;;;4868480;29;20207;-79
2024/03/03 11:11:25;;;;;;;22.08;12.70;;;24.20;57.90;;;;;;4866035;29;20310;-78
2024/03/03 11:13:57;;;;;;;22.58;11.65;;;23.90;57.50;;;;;;4873621;29;20278;-79
2024/03/03 11:16:29;;;;;;;19.80;12.35;;;23.10;57.90;;;;;;4865161;29;20199;-75
2024/03/03 11:19:03;;;;;;;20.85;12.68;;;22.50;58.90;;;;;;4868056;29;20200;-77
2024/03/03 11:21:37;;;;;;;19.45;12.15;;;21.90;59.40;;;;;;4868221;29;20222;-78
2024/03/03 11:24:07;;;;;;;21.33;11.75;;;21.20;60.60;;;;;;4870862;29;20210;-78
2024/03/03 11:26:42;;;;;;;20.70;12.68;;;20.90;62.20;;;;;;4862013;29;20207;-75
2024/03/03 11:29:11;;;;;;;17.92;10.80;;;20.60;63.00;;;;;;4873422;29;20195;-77
2024/03/03 11:31:39;;;;;;;20.85;11.40;;;20.50;63.70;;;;;;4864569;29;20249;-75
2024/03/03 11:34:08;;;;;;;21.45;12.10;;;20.50;63.90;;;;;;4858314;29;20265;-76
2024/03/03 11:36:36;;;;;;;22.90;13.20;;;20.20;64.20;;;;;;4854578;29;20257;-75
2024/03/03 11:39:10;;;;;;;26.70;13.00;;;19.90;64.80;;;;;;4857002;29;20209;-75
2024/03/03 11:41:41;;;;;;;19.33;12.40;;;19.70;65.50;;;;;;4857260;29;20193;-75
2024/03/03 11:44:48;;;;;;;19.80;11.98;;;19.70;66.10;;;;;;4858939;29;20193;-78
2024/03/03 11:47:16;;;;;;;18.98;11.85;;;19.70;66.40;;;;;;4853114;29;20666;-77
2024/03/03 11:49:44;;;;;;;17.92;10.65;;;19.60;66.70;;;;;;4867601;29;20200;-76
2024/03/03 11:52:11;;;;;;;22.67;11.93;;;19.70;67.40;;;;;;4860490;29;20249;-75
2024/03/03 11:54:41;;;;;;;15.90;10.32;;;19.90;67.10;;;;;;4862661;29;20224;-76
2024/03/03 11:57:17;;;;;;;20.25;11.32;;;19.80;67.20;;;;;;4865383;29;20284;-77
2024/03/03 11:59:46;;;;;;;18.90;11.88;;;19.60;67.20;;;;;;4861883;29;20247;-78
2024/03/03 12:02:16;;;;;;;21.75;13.20;;;19.40;67.90;;;;;;4867742;29;20208;-78
2024/03/03 12:04:44;;;;;;;21.85;12.95;;;19.20;68.20;;;;;;4864991;29;20212;-77
2024/03/03 12:07:16;;;;;;;19.25;11.35;;;18.90;68.50;;;;;;4861712;29;20212;-77
2024/03/03 12:09:44;;;;;;;23.88;12.32;;;18.80;69.10;;;;;;4862233;29;20227;-77
2024/03/03 12:12:13;;;;;;;20.85;12.27;;;18.90;69.70;;;;;;4868228;29;20600;-78
2024/03/03 12:14:40;;;;;;;20.70;11.77;;;19.00;69.90;;;;;;4865538;29;20252;-81
2024/03/03 12:17:08;;;;;;;20.45;11.93;;;19.10;69.80;;;;;;4865967;29;20192;-76
2024/03/03 12:19:35;;;;;;;19.98;12.05;;;19.20;69.90;;;;;;4859569;29;20220;-76
2024/03/03 12:22:03;;;;;;;23.48;12.32;;;19.40;69.70;;;;;;4867078;29;20207;-78
2024/03/03 12:24:30;;;;;;;17.58;11.05;;;19.40;69.30;;;;;;4863894;29;20215;-78
2024/03/03 12:26:57;;;;;;;20.10;12.55;;;19.40;69.80;;;;;;4869821;29;20661;-77
2024/03/03 12:29:26;;;;;;;22.65;13.05;;;19.40;69.20;;;;;;4861840;29;20533;-79
2024/03/03 12:31:53;;;;;;;19.23;11.07;;;19.20;69.40;;;;;;4858604;29;20204;-79
2024/03/03 12:34:20;;;;;;;18.55;10.35;;;19.00;69.90;;;;;;4861154;29;20677;-76